Time;durP1;ratioP1;P1;durP2;ratioP2;P2;SDS_P1;SDS_P2;PMS_P1;PMS_P2;Temp;Humidity;BMP_temperature;BMP_pressure;BME280_temperature;BME280_humidity;BME280_pressure;Samples;Min_cycle;Max_cycle;Signal;HPM_P1;HPM_P2
2023/01/22 00:01:40;;;;;;;0.30;0.30;;;11.40;57.80;;;;;;5047069;28;20090;-91
2023/01/22 00:04:05;;;;;;;0.32;0.32;;;11.40;57.60;;;;;;5054468;28;20069;-90
2023/01/22 00:06:31;;;;;;;0.30;0.30;;;11.70;57.10;;;;;;5052025;28;20028;-90
2023/01/22 00:09:02;;;;;;;0.40;0.40;;;11.70;57.40;;;;;;5054109;28;20063;-91
2023/01/22 00:11:28;;;;;;;0.28;0.28;;;11.80;57.00;;;;;;5057096;28;20103;-89
2023/01/22 00:13:54;;;;;;;0.30;0.30;;;11.50;57.40;;;;;;5061043;28;20123;-90
2023/01/22 00:16:20;;;;;;;0.20;0.20;;;11.50;58.10;;;;;;5063455;28;20043;-90
2023/01/22 00:18:45;;;;;;;0.20;0.20;;;11.70;57.90;;;;;;5077538;28;20437;-90
2023/01/22 00:21:12;;;;;;;0.30;0.30;;;12.00;57.00;;;;;;5064799;28;20040;-89
2023/01/22 00:23:38;;;;;;;0.30;0.30;;;12.00;56.30;;;;;;5062676;28;20032;-89
2023/01/22 00:26:10;;;;;;;0.20;0.20;;;12.00;57.40;;;;;;5061680;28;20506;-90
2023/01/22 00:28:37;;;;;;;0.30;0.30;;;12.00;57.00;;;;;;5081710;28;20032;-90
2023/01/22 00:31:04;;;;;;;0.20;0.20;;;12.30;56.80;;;;;;5063234;28;20060;-91
2023/01/22 00:33:31;;;;;;;0.30;0.30;;;12.20;55.90;;;;;;5066022;28;20012;-89
2023/01/22 00:36:12;;;;;;;0.20;0.20;;;12.20;56.70;;;;;;5045674;28;20087;-91
2023/01/22 00:38:38;;;;;;;0.25;0.25;;;12.40;55.90;;;;;;5059981;28;20016;-90
2023/01/22 00:41:05;;;;;;;0.20;0.20;;;12.00;56.40;;;;;;5075175;28;20032;-88
2023/01/22 00:43:32;;;;;;;0.32;0.32;;;11.50;57.90;;;;;;5066993;28;20399;-91
2023/01/22 00:46:00;;;;;;;0.30;0.30;;;11.80;57.50;;;;;;5070997;28;20043;-91
2023/01/22 00:48:26;;;;;;;0.30;0.30;;;11.90;56.50;;;;;;5064602;28;20017;-90
2023/01/22 00:50:52;;;;;;;0.20;0.20;;;11.70;57.40;;;;;;5058472;28;20033;-92
2023/01/22 00:53:18;;;;;;;0.40;0.40;;;11.60;56.20;;;;;;5048961;28;20020;-90
2023/01/22 00:56:00;;;;;;;0.20;0.20;;;10.90;58.80;;;;;;5058346;28;20684;-90
2023/01/22 00:58:27;;;;;;;0.20;0.20;;;11.00;58.40;;;;;;5064055;28;20039;-91
2023/01/22 01:00:53;;;;;;;0.20;0.20;;;11.40;58.40;;;;;;5067206;28;20029;-91
2023/01/22 01:03:31;;;;;;;0.20;0.20;;;11.30;58.30;;;;;;5064817;28;20020;-91
2023/01/22 01:06:06;;;;;;;0.22;0.22;;;11.10;57.90;;;;;;5065270;28;20111;-92
2023/01/22 01:08:35;;;;;;;0.30;0.30;;;10.80;58.30;;;;;;5069168;28;20028;-91
2023/01/22 01:11:09;;;;;;;0.30;0.30;;;11.10;57.80;;;;;;5054948;28;20029;-91
2023/01/22 01:13:37;;;;;;;0.30;0.30;;;11.30;58.10;;;;;;5043994;28;20025;-91
2023/01/22 01:16:15;;;;;;;0.20;0.20;;;11.70;57.70;;;;;;5039131;28;20082;-90
2023/01/22 01:18:42;;;;;;;0.28;0.28;;;10.50;58.70;;;;;;5040142;28;20029;-90
2023/01/22 01:21:09;;;;;;;0.30;0.30;;;10.40;60.60;;;;;;5039921;28;20082;-92
2023/01/22 01:23:36;;;;;;;0.20;0.20;;;10.20;61.70;;;;;;5040088;28;20033;-89
2023/01/22 01:26:12;;;;;;;0.25;0.25;;;10.60;60.50;;;;;;5039553;28;20068;-90
2023/01/22 01:28:39;;;;;;;0.30;0.30;;;10.70;60.50;;;;;;5039159;28;20073;-90
2023/01/22 01:31:07;;;;;;;0.30;0.30;;;10.60;60.60;;;;;;5040212;28;20117;-90
2023/01/22 01:33:33;;;;;;;0.20;0.20;;;10.90;60.10;;;;;;5037073;28;20018;-90
2023/01/22 01:36:05;;;;;;;0.30;0.30;;;11.20;59.70;;;;;;5035904;28;20082;-90
2023/01/22 01:38:31;;;;;;;0.30;0.30;;;11.60;59.00;;;;;;5044430;28;20021;-91
2023/01/22 01:40:57;;;;;;;0.30;0.30;;;11.20;58.20;;;;;;5060780;28;20014;-90
2023/01/22 01:43:23;;;;;;;0.30;0.30;;;10.60;60.90;;;;;;5069562;28;20380;-89
2023/01/22 01:45:48;;;;;;;0.20;0.20;;;10.50;61.00;;;;;;5059546;28;20017;-90
2023/01/22 01:48:40;;;;;;;0.20;0.20;;;10.90;61.00;;;;;;5056935;28;20029;-96
2023/01/22 01:51:13;;;;;;;0.20;0.20;;;11.40;60.50;;;;;;5050899;28;20416;-91
2023/01/22 01:53:41;;;;;;;0.25;0.25;;;11.40;59.40;;;;;;5058155;28;20035;-89
2023/01/22 01:56:20;;;;;;;0.20;0.20;;;10.70;60.80;;;;;;5071770;28;20052;-90
2023/01/22 01:59:07;;;;;;;0.30;0.30;;;10.70;60.40;;;;;;5071502;28;20045;-88
2023/01/22 02:01:33;;;;;;;0.38;0.38;;;10.80;60.40;;;;;;5056706;28;20040;-90
2023/01/22 02:04:06;;;;;;;0.20;0.20;;;11.20;60.00;;;;;;5053208;28;20018;-88
2023/01/22 02:06:31;;;;;;;0.30;0.30;;;11.20;60.30;;;;;;5044561;28;20082;-89
2023/01/22 02:08:59;;;;;;;0.20;0.20;;;11.40;60.30;;;;;;5048049;28;20025;-89
2023/01/22 02:11:26;;;;;;;0.22;0.22;;;11.50;60.20;;;;;;5053289;28;20025;-90
2023/01/22 02:14:05;;;;;;;0.32;0.32;;;11.60;59.20;;;;;;5054143;28;20029;-90
2023/01/22 02:16:31;;;;;;;0.20;0.20;;;11.70;59.00;;;;;;5039176;28;20480;-90
2023/01/22 02:18:57;;;;;;;0.20;0.20;;;11.60;58.70;;;;;;5052353;28;20028;-88
2023/01/22 02:21:39;;;;;;;0.30;0.30;;;10.50;61.20;;;;;;5052772;28;20028;-89
2023/01/22 02:24:14;;;;;;;0.30;0.30;;;10.10;63.20;;;;;;5051489;28;20033;-89
2023/01/22 02:26:41;;;;;;;0.20;0.20;;;10.30;63.50;;;;;;5039664;28;20013;-89
2023/01/22 02:29:09;;;;;;;0.20;0.20;;;10.80;62.30;;;;;;5072052;28;20025;-90
2023/01/22 02:31:36;;;;;;;0.20;0.20;;;11.30;60.50;;;;;;5072347;28;20021;-90
2023/01/22 02:34:04;;;;;;;0.30;0.30;;;11.20;59.20;;;;;;5054796;28;20392;-89
2023/01/22 02:36:32;;;;;;;0.32;0.32;;;10.50;61.10;;;;;;5055218;28;20358;-88
2023/01/22 02:39:04;;;;;;;0.30;0.30;;;10.40;61.80;;;;;;5055766;28;20040;-86
2023/01/22 02:41:30;;;;;;;0.20;0.20;;;10.70;61.00;;;;;;5042050;28;20480;-88
2023/01/22 02:43:55;;;;;;;0.30;0.30;;;10.60;61.60;;;;;;5057525;28;20044;-89
2023/01/22 02:46:21;;;;;;;0.25;0.25;;;10.90;60.60;;;;;;5058537;28;20021;-89
2023/01/22 02:48:47;;;;;;;0.20;0.20;;;11.20;59.80;;;;;;5056120;28;20024;-89
2023/01/22 02:51:13;;;;;;;0.30;0.30;;;11.50;59.10;;;;;;5057397;28;20028;-89
2023/01/22 02:53:38;;;;;;;0.20;0.20;;;11.70;58.80;;;;;;5053178;28;20550;-89
2023/01/22 02:56:06;;;;;;;0.20;0.20;;;11.80;58.50;;;;;;5051689;28;20503;-90
2023/01/22 02:58:33;;;;;;;0.30;0.30;;;11.70;57.90;;;;;;5073729;28;20033;-88
2023/01/22 03:01:17;;;;;;;0.30;0.30;;;11.70;58.60;;;;;;5071787;28;20024;-89
2023/01/22 03:04:10;;;;;;;0.25;0.25;;;11.20;58.90;;;;;;5068508;28;20077;-89
2023/01/22 03:06:38;;;;;;;0.30;0.30;;;10.60;60.20;;;;;;5073377;28;20029;-87
2023/01/22 03:09:05;;;;;;;0.30;0.30;;;10.50;61.10;;;;;;5059077;28;20074;-89
2023/01/22 03:11:41;;;;;;;0.30;0.30;;;10.80;60.80;;;;;;5060744;28;20056;-89
2023/01/22 03:22:21;;;;;;;0.30;0.30;;;10.10;62.50;;;;;;5057049;28;20044;-89
2023/01/22 03:24:49;;;;;;;0.30;0.30;;;10.40;62.30;;;;;;5059826;28;20044;-89
2023/01/22 03:27:16;;;;;;;0.30;0.30;;;10.00;63.30;;;;;;5076812;28;20021;-89
2023/01/22 03:29:42;;;;;;;0.20;0.20;;;9.90;62.80;;;;;;5059154;28;20494;-89
2023/01/22 03:32:08;;;;;;;0.30;0.30;;;9.40;64.60;;;;;;5058158;28;20029;-89
2023/01/22 03:34:33;;;;;;;0.30;0.30;;;9.20;65.60;;;;;;5063470;28;20016;-88
2023/01/22 03:36:59;;;;;;;0.20;0.20;;;9.70;65.10;;;;;;5057460;28;20028;-89
2023/01/22 03:39:26;;;;;;;0.20;0.20;;;10.40;63.20;;;;;;5051059;28;20025;-88
2023/01/22 03:41:52;;;;;;;0.20;0.20;;;10.90;61.70;;;;;;5057068;28;20032;-88
2023/01/22 03:44:17;;;;;;;0.20;0.20;;;11.20;60.70;;;;;;5057271;28;20040;-87
2023/01/22 03:46:43;;;;;;;0.30;0.30;;;11.40;60.30;;;;;;5065330;28;20084;-89
2023/01/22 03:49:11;;;;;;;0.28;0.28;;;11.60;60.00;;;;;;5063718;28;20029;-89
2023/01/22 03:51:37;;;;;;;0.20;0.20;;;11.70;60.10;;;;;;5063837;28;20452;-90
2023/01/22 03:54:03;;;;;;;0.25;0.25;;;11.70;59.80;;;;;;5080785;28;20036;-89
2023/01/22 03:56:30;;;;;;;0.20;0.20;;;11.60;59.50;;;;;;5062367;28;20027;-89
2023/01/22 03:58:55;;;;;;;0.30;0.30;;;11.70;60.10;;;;;;5065737;28;20039;-89
2023/01/22 04:01:38;;;;;;;0.30;0.30;;;11.90;59.60;;;;;;5064185;28;20032;-89
2023/01/22 04:04:04;;;;;;;0.30;0.30;;;12.00;59.10;;;;;;5058475;28;20075;-90
2023/01/22 04:06:32;;;;;;;0.30;0.30;;;12.00;59.10;;;;;;5063759;28;20032;-88
2023/01/22 04:08:57;;;;;;;0.20;0.20;;;12.00;58.90;;;;;;5057843;28;20028;-90
2023/01/22 04:11:23;;;;;;;0.30;0.30;;;11.60;59.50;;;;;;5061678;28;20066;-88
2023/01/22 04:13:49;;;;;;;0.30;0.30;;;11.40;60.00;;;;;;5085566;28;20029;-89
2023/01/22 04:16:15;;;;;;;0.25;0.25;;;11.10;60.50;;;;;;5085414;28;20078;-89
2023/01/22 04:19:03;;;;;;;0.30;0.30;;;11.20;60.80;;;;;;5084732;28;20038;-88
2023/01/22 04:21:29;;;;;;;0.30;0.30;;;11.10;60.70;;;;;;5085470;28;20032;-89
2023/01/22 04:24:00;;;;;;;0.20;0.20;;;11.10;61.10;;;;;;5064568;28;20407;-89
2023/01/22 04:26:26;;;;;;;0.30;0.30;;;11.40;60.40;;;;;;5075043;28;20492;-90
2023/01/22 04:28:52;;;;;;;0.38;0.38;;;11.60;60.20;;;;;;5059839;28;20048;-90
2023/01/22 04:31:17;;;;;;;0.30;0.30;;;11.70;59.60;;;;;;5059422;28;20025;-89
2023/01/22 04:33:43;;;;;;;0.30;0.30;;;11.80;59.50;;;;;;5050671;28;20034;-90
2023/01/22 04:36:09;;;;;;;0.30;0.30;;;11.90;59.30;;;;;;5046108;28;20033;-89
2023/01/22 04:38:35;;;;;;;0.30;0.30;;;12.00;59.30;;;;;;5061611;28;20029;-89
2023/01/22 04:41:00;;;;;;;0.30;0.30;;;11.90;59.20;;;;;;5077228;28;20120;-89
2023/01/22 04:43:26;;;;;;;0.30;0.30;;;11.80;59.60;;;;;;5058910;28;20030;-90
2023/01/22 04:45:52;;;;;;;0.38;0.38;;;11.80;59.50;;;;;;5059928;28;20025;-90
2023/01/22 04:48:17;;;;;;;0.30;0.30;;;11.90;59.60;;;;;;5048788;28;20029;-89
2023/01/22 04:50:43;;;;;;;0.25;0.25;;;11.90;59.10;;;;;;5039353;28;20029;-89
2023/01/22 04:53:09;;;;;;;0.35;0.35;;;11.90;59.70;;;;;;5054921;28;20017;-90
2023/01/22 04:55:35;;;;;;;0.20;0.20;;;12.00;59.20;;;;;;5056270;28;20495;-89
2023/01/22 04:58:00;;;;;;;0.20;0.20;;;12.00;59.60;;;;;;5037481;28;20025;-90
2023/01/22 05:00:28;;;;;;;0.30;0.30;;;11.80;59.90;;;;;;5053826;28;20029;-89
2023/01/22 05:02:58;;;;;;;0.30;0.30;;;11.80;59.90;;;;;;5058666;28;20519;-89
2023/01/22 05:05:25;;;;;;;0.20;0.20;;;12.00;59.10;;;;;;5059139;28;20017;-87
2023/01/22 05:08:29;;;;;;;0.30;0.30;;;11.80;59.70;;;;;;5046144;28;20026;-86
2023/01/22 05:10:59;;;;;;;0.30;0.30;;;11.90;59.60;;;;;;5038517;28;20077;-89
2023/01/22 05:13:25;;;;;;;0.30;0.30;;;12.00;59.60;;;;;;5036118;28;20032;-88
2023/01/22 05:15:54;;;;;;;0.28;0.28;;;12.10;59.10;;;;;;5038579;28;20021;-88
2023/01/22 05:18:20;;;;;;;0.30;0.30;;;11.80;59.70;;;;;;5037958;28;20025;-88
2023/01/22 05:20:46;;;;;;;0.30;0.30;;;11.70;59.90;;;;;;5054381;28;20369;-87
2023/01/22 05:23:12;;;;;;;0.20;0.20;;;11.70;60.00;;;;;;5057898;28;20544;-88
2023/01/22 05:25:37;;;;;;;0.28;0.28;;;11.80;60.40;;;;;;5059651;28;20148;-89
2023/01/22 05:28:04;;;;;;;0.20;0.20;;;11.90;59.80;;;;;;5055262;28;20039;-88
2023/01/22 05:30:29;;;;;;;0.30;0.30;;;12.00;59.50;;;;;;5042409;28;20052;-88
2023/01/22 05:32:56;;;;;;;0.20;0.20;;;12.00;59.30;;;;;;5041372;28;20025;-89
2023/01/22 05:35:22;;;;;;;0.30;0.30;;;11.90;59.50;;;;;;5041882;28;20033;-90
2023/01/22 05:37:48;;;;;;;0.30;0.30;;;11.90;59.60;;;;;;5043773;28;20014;-88
2023/01/22 05:40:13;;;;;;;0.20;0.20;;;12.00;59.40;;;;;;5039346;28;20056;-88
2023/01/22 05:42:39;;;;;;;0.30;0.30;;;11.90;59.60;;;;;;5040343;28;20079;-87
2023/01/22 05:45:05;;;;;;;0.30;0.30;;;11.90;59.90;;;;;;5035909;28;20487;-89
2023/01/22 05:47:31;;;;;;;0.30;0.30;;;11.90;59.60;;;;;;5055076;28;20029;-88
2023/01/22 05:49:57;;;;;;;0.28;0.28;;;12.00;59.40;;;;;;5059314;28;20100;-87
2023/01/22 05:52:23;;;;;;;0.30;0.30;;;12.10;58.70;;;;;;5054343;28;20029;-89
2023/01/22 05:54:48;;;;;;;0.20;0.20;;;12.00;59.20;;;;;;5064810;28;20051;-88
2023/01/22 05:57:14;;;;;;;0.30;0.30;;;11.90;59.30;;;;;;5059496;28;20006;-88
2023/01/22 05:59:40;;;;;;;0.20;0.20;;;11.90;59.10;;;;;;5056075;28;20040;-89
2023/01/22 06:02:05;;;;;;;0.30;0.30;;;11.80;58.90;;;;;;5054944;28;20099;-88
2023/01/22 06:04:31;;;;;;;0.25;0.25;;;11.60;59.40;;;;;;5057924;28;20045;-88
2023/01/22 06:06:57;;;;;;;0.25;0.25;;;11.20;59.70;;;;;;5076582;28;20030;-89
2023/01/22 06:09:22;;;;;;;0.30;0.30;;;11.00;60.70;;;;;;5072991;28;20123;-88
2023/01/22 06:11:51;;;;;;;0.28;0.28;;;10.90;60.80;;;;;;5054322;28;20018;-89
2023/01/22 06:14:16;;;;;;;0.20;0.20;;;10.80;61.20;;;;;;5034913;28;20044;-89
2023/01/22 06:16:42;;;;;;;0.30;0.30;;;10.80;61.80;;;;;;5042017;28;20028;-89
2023/01/22 06:19:08;;;;;;;0.30;0.30;;;10.50;61.80;;;;;;5071656;28;20028;-89
2023/01/22 06:21:34;;;;;;;0.30;0.30;;;10.30;62.70;;;;;;5070733;28;20025;-87
2023/01/22 06:23:59;;;;;;;0.30;0.30;;;10.40;62.70;;;;;;5058137;28;20128;-89
2023/01/22 06:26:25;;;;;;;0.20;0.20;;;10.70;61.60;;;;;;5052193;28;20049;-88
2023/01/22 06:28:51;;;;;;;0.20;0.20;;;10.90;61.40;;;;;;5043019;28;20033;-88
2023/01/22 06:31:17;;;;;;;0.30;0.30;;;10.90;61.40;;;;;;5046473;28;20083;-89
2023/01/22 06:33:43;;;;;;;0.30;0.30;;;10.80;61.00;;;;;;5058990;28;20033;-89
2023/01/22 06:36:08;;;;;;;0.30;0.30;;;10.50;62.70;;;;;;5056407;28;20057;-89
2023/01/22 06:38:52;;;;;;;0.20;0.20;;;10.50;62.20;;;;;;5053854;28;20536;-89
2023/01/22 06:41:22;;;;;;;0.25;0.25;;;10.60;62.50;;;;;;5036181;28;20391;-90
2023/01/22 06:43:47;;;;;;;0.30;0.30;;;10.80;62.00;;;;;;5039296;28;20036;-88
2023/01/22 06:46:16;;;;;;;0.30;0.30;;;10.80;61.50;;;;;;5045802;28;20064;-87
2023/01/22 06:48:45;;;;;;;0.30;0.30;;;10.90;61.30;;;;;;5042355;28;20411;-88
2023/01/22 06:51:11;;;;;;;0.28;0.28;;;10.80;61.50;;;;;;5053376;28;20041;-89
2023/01/22 06:53:37;;;;;;;0.20;0.20;;;11.00;61.20;;;;;;5055957;28;20017;-88
2023/01/22 06:56:04;;;;;;;0.25;0.25;;;11.20;60.70;;;;;;5066969;28;20021;-88
2023/01/22 06:58:30;;;;;;;0.20;0.20;;;11.40;60.50;;;;;;4695799;28;10000308;-90
2023/01/22 07:01:01;;;;;;;0.25;0.25;;;11.10;60.10;;;;;;5055939;28;20055;-88
2023/01/22 07:03:26;;;;;;;;;;;11.10;61.00;;;;;;5051181;28;20167;-87
2023/01/22 07:05:57;;;;;;;0.25;0.25;;;11.00;61.20;;;;;;5033726;28;20008;-89
2023/01/22 07:08:24;;;;;;;0.30;0.30;;;11.10;61.40;;;;;;5042706;28;20033;-89
2023/01/22 07:10:50;;;;;;;0.30;0.30;;;10.80;62.10;;;;;;5054158;28;20025;-87
2023/01/22 07:13:15;;;;;;;0.20;0.20;;;10.50;62.40;;;;;;5052589;28;20024;-86
2023/01/22 07:15:41;;;;;;;0.28;0.28;;;10.40;63.30;;;;;;5057971;28;20514;-88
2023/01/22 07:18:09;;;;;;;0.20;0.20;;;10.90;62.60;;;;;;5054938;28;20025;-89
2023/01/22 07:20:36;;;;;;;0.30;0.30;;;11.10;61.40;;;;;;5062513;28;20013;-89
2023/01/22 07:23:02;;;;;;;0.20;0.20;;;11.20;60.90;;;;;;5069602;28;20029;-87
2023/01/22 07:25:28;;;;;;;0.20;0.20;;;11.20;61.20;;;;;;5062964;28;20104;-87
2023/01/22 07:28:01;;;;;;;0.30;0.30;;;11.00;61.30;;;;;;5060942;28;20051;-87
2023/01/22 07:30:28;;;;;;;0.30;0.30;;;10.80;61.90;;;;;;5054868;28;20087;-89
2023/01/22 07:32:56;;;;;;;0.20;0.20;;;10.90;61.90;;;;;;5054030;28;20025;-89
2023/01/22 07:35:23;;;;;;;0.28;0.28;;;11.20;61.20;;;;;;5057732;28;20040;-89
2023/01/22 07:37:53;;;;;;;0.20;0.20;;;10.80;61.60;;;;;;5058542;28;20025;-88
2023/01/22 07:40:20;;;;;;;0.20;0.20;;;10.80;62.20;;;;;;5038048;28;20030;-89
2023/01/22 07:42:46;;;;;;;0.30;0.30;;;10.90;62.50;;;;;;5036586;28;20072;-88
2023/01/22 07:45:23;;;;;;;0.30;0.30;;;11.00;62.00;;;;;;5033100;28;20065;-88
2023/01/22 07:47:57;;;;;;;0.20;0.20;;;11.20;61.50;;;;;;5045017;28;20075;-85
2023/01/22 07:50:25;;;;;;;0.30;0.30;;;11.30;60.90;;;;;;5053680;28;20128;-85
2023/01/22 07:52:51;;;;;;;0.20;0.20;;;11.30;61.70;;;;;;5043211;28;20010;-89
2023/01/22 07:55:17;;;;;;;0.40;0.40;;;11.30;62.00;;;;;;5038735;28;20037;-96
2023/01/22 07:57:43;;;;;;;0.30;0.30;;;11.30;62.70;;;;;;5054115;28;20025;-85
2023/01/22 08:00:09;;;;;;;0.20;0.20;;;11.60;61.00;;;;;;5050624;28;20033;-85
2023/01/22 08:02:36;;;;;;;0.30;0.30;;;11.50;62.20;;;;;;5044817;28;20025;-94
2023/01/22 08:05:03;;;;;;;0.30;0.30;;;11.70;61.70;;;;;;5051263;28;20706;-88
2023/01/22 08:07:29;;;;;;;0.30;0.30;;;12.00;60.60;;;;;;5051329;28;20026;-93
2023/01/22 08:09:55;;;;;;;0.20;0.20;;;12.00;60.00;;;;;;5057395;28;20025;-93
2023/01/22 08:12:21;;;;;;;0.30;0.30;;;12.00;60.50;;;;;;5061950;28;20029;-94
2023/01/22 08:14:47;;;;;;;0.30;0.30;;;12.00;60.20;;;;;;5056099;28;20017;-88
2023/01/22 08:17:16;;;;;;;0.25;0.25;;;11.90;60.70;;;;;;5070999;28;20047;-86
2023/01/22 08:19:41;;;;;;;0.20;0.20;;;11.90;60.10;;;;;;5057661;28;20037;-89
2023/01/22 08:22:08;;;;;;;0.30;0.30;;;12.20;60.50;;;;;;5053613;28;20040;-87
2023/01/22 08:24:34;;;;;;;0.20;0.20;;;12.40;59.90;;;;;;5056919;28;20061;-84
2023/01/22 08:27:02;;;;;;;0.20;0.20;;;12.50;59.70;;;;;;5049758;28;20052;-86
2023/01/22 08:29:27;;;;;;;0.30;0.30;;;12.50;60.10;;;;;;5052258;28;20502;-86
2023/01/22 08:31:56;;;;;;;0.30;0.30;;;12.70;59.50;;;;;;5048521;28;20025;-86
2023/01/22 08:34:22;;;;;;;0.30;0.30;;;12.80;59.20;;;;;;5069592;28;20029;-88
2023/01/22 08:36:47;;;;;;;0.22;0.22;;;12.70;59.40;;;;;;5052407;28;20116;-88
2023/01/22 08:39:13;;;;;;;0.20;0.20;;;12.80;59.70;;;;;;5052515;28;20076;-88
2023/01/22 08:41:39;;;;;;;0.20;0.20;;;12.50;59.40;;;;;;5064568;28;20024;-89
2023/01/22 08:44:06;;;;;;;0.25;0.25;;;12.20;60.10;;;;;;5073461;28;20037;-91
2023/01/22 08:46:34;;;;;;;0.30;0.30;;;12.30;59.90;;;;;;5058845;28;20083;-89
2023/01/22 08:49:02;;;;;;;0.30;0.30;;;12.50;59.90;;;;;;5055175;28;20036;-87
2023/01/22 08:51:28;;;;;;;0.20;0.20;;;12.60;59.90;;;;;;5054616;28;20025;-90
2023/01/22 08:53:53;;;;;;;0.30;0.30;;;12.70;59.30;;;;;;5054497;28;20040;-87
2023/01/22 08:56:19;;;;;;;0.20;0.20;;;12.70;59.10;;;;;;5054147;28;20028;-87
2023/01/22 08:58:49;;;;;;;0.30;0.30;;;12.80;59.50;;;;;;5054332;28;20052;-87
2023/01/22 09:01:16;;;;;;;0.30;0.30;;;13.10;58.60;;;;;;5054882;28;20031;-86
2023/01/22 09:03:42;;;;;;;0.20;0.20;;;12.70;59.70;;;;;;5054714;28;20033;-87
2023/01/22 09:06:08;;;;;;;0.20;0.20;;;12.70;59.50;;;;;;5054816;28;20119;-89
2023/01/22 09:08:34;;;;;;;0.30;0.30;;;12.90;59.50;;;;;;5054584;28;20025;-87
2023/01/22 09:11:02;;;;;;;0.20;0.20;;;13.10;59.30;;;;;;5051718;28;20044;-86
2023/01/22 09:13:27;;;;;;;0.20;0.20;;;13.30;59.10;;;;;;5062834;28;20488;-93
2023/01/22 09:15:55;;;;;;;0.30;0.30;;;13.50;58.70;;;;;;5054784;28;20495;-87
2023/01/22 09:18:21;;;;;;;0.30;0.30;;;13.60;58.00;;;;;;5054549;28;20025;-86
2023/01/22 09:20:47;;;;;;;0.30;0.30;;;13.50;57.90;;;;;;5054029;28;20074;-86
2023/01/22 09:23:12;;;;;;;0.30;0.30;;;13.50;58.10;;;;;;5053902;28;20025;-86
2023/01/22 09:25:38;;;;;;;0.30;0.30;;;13.70;58.00;;;;;;5054237;28;20052;-88
2023/01/22 09:28:07;;;;;;;0.32;0.32;;;13.60;57.50;;;;;;5053994;28;20078;-90
2023/01/22 09:30:33;;;;;;;0.25;0.25;;;13.00;59.00;;;;;;5050029;28;20021;-94
2023/01/22 09:32:59;;;;;;;0.30;0.30;;;12.70;59.90;;;;;;5034463;28;20115;-88
2023/01/22 09:35:26;;;;;;;0.30;0.30;;;12.60;60.00;;;;;;5035458;28;20532;-88
2023/01/22 09:37:52;;;;;;;0.28;0.28;;;12.80;60.40;;;;;;5035101;28;20060;-86
2023/01/22 09:40:28;;;;;;;0.20;0.20;;;13.10;59.50;;;;;;5038266;28;20060;-86
2023/01/22 09:43:04;;;;;;;0.20;0.20;;;13.40;59.60;;;;;;5053794;28;20033;-87
2023/01/22 09:45:35;;;;;;;0.20;0.20;;;13.70;59.10;;;;;;5053816;28;20079;-87
2023/01/22 09:48:06;;;;;;;0.20;0.20;;;14.00;58.40;;;;;;5054092;28;20021;-90
2023/01/22 09:50:34;;;;;;;0.30;0.30;;;14.20;57.70;;;;;;5052893;28;20094;-94
2023/01/22 09:53:03;;;;;;;0.20;0.20;;;14.40;57.40;;;;;;5055145;28;20017;-88
2023/01/22 09:55:34;;;;;;;0.38;0.38;;;14.40;57.50;;;;;;5048913;28;20063;-86
2023/01/22 09:58:04;;;;;;;0.20;0.20;;;13.80;58.70;;;;;;5067827;28;20055;-87
2023/01/22 10:00:43;;;;;;;0.30;0.30;;;13.30;59.00;;;;;;5052107;28;20029;-89
2023/01/22 10:03:39;;;;;;;0.30;0.30;;;12.90;60.40;;;;;;5035389;28;20142;-89
2023/01/22 10:06:20;;;;;;;0.30;0.30;;;12.60;60.70;;;;;;5034329;28;20026;-92
2023/01/22 10:09:14;;;;;;;0.30;0.30;;;12.30;62.20;;;;;;5034216;28;20029;-92
2023/01/22 10:11:42;;;;;;;0.20;0.20;;;11.60;63.30;;;;;;5034144;28;20038;-90
2023/01/22 10:14:14;;;;;;;0.20;0.20;;;11.20;64.90;;;;;;5034156;28;20029;-89
2023/01/22 10:16:40;;;;;;;0.30;0.30;;;11.10;66.00;;;;;;5035250;28;20109;-91
2023/01/22 10:19:29;;;;;;;0.30;0.30;;;11.30;65.00;;;;;;5037333;28;20060;-89
2023/01/22 10:21:59;;;;;;;0.30;0.30;;;11.30;64.60;;;;;;5034775;28;20112;-95
2023/01/22 10:24:25;;;;;;;0.40;0.40;;;11.10;65.70;;;;;;5042155;28;20039;-87
2023/01/22 10:26:54;;;;;;;0.25;0.25;;;11.20;66.00;;;;;;5033899;28;20050;-88
2023/01/22 10:29:33;;;;;;;0.20;0.20;;;11.60;65.20;;;;;;5042187;28;20076;-90
2023/01/22 10:32:01;;;;;;;0.40;0.40;;;11.90;63.70;;;;;;5033986;28;20029;-93
2023/01/22 10:34:31;;;;;;;0.28;0.28;;;12.00;64.10;;;;;;5039172;28;20013;-91
2023/01/22 10:37:01;;;;;;;0.30;0.30;;;12.50;62.60;;;;;;5054175;28;20375;-92
2023/01/22 10:39:27;;;;;;;;;;;12.60;61.90;;;;;;5055175;28;20029;-90
2023/01/22 10:42:00;;;;;;;0.20;0.20;;;12.40;62.20;;;;;;5055982;28;19905;-89
2023/01/22 10:44:26;;;;;;;0.30;0.30;;;12.20;62.60;;;;;;4703300;28;9999988;-95
2023/01/22 10:46:54;;;;;;;0.30;0.30;;;12.20;63.00;;;;;;5049237;28;20075;-86
2023/01/22 10:49:25;;;;;;;0.20;0.20;;;12.20;63.50;;;;;;5054110;28;20029;-92
2023/01/22 10:51:55;;;;;;;0.20;0.20;;;12.10;64.40;;;;;;5054697;28;20029;-93
2023/01/22 10:54:43;;;;;;;0.30;0.30;;;12.60;63.70;;;;;;5057595;28;20049;-87
2023/01/22 10:57:09;;;;;;;0.30;0.30;;;13.30;62.00;;;;;;5060562;28;20020;-86
2023/01/22 10:59:36;;;;;;;0.30;0.30;;;13.70;60.80;;;;;;5047963;28;20467;-95
2023/01/22 11:02:17;;;;;;;0.28;0.28;;;13.60;60.90;;;;;;5065890;28;20034;-87
2023/01/22 11:04:44;;;;;;;0.20;0.20;;;13.80;61.10;;;;;;5069545;28;20040;-86
2023/01/22 11:07:21;;;;;;;0.20;0.20;;;13.70;59.30;;;;;;5066445;28;20017;-93
2023/01/22 11:10:28;;;;;;;0.20;0.20;;;13.30;60.20;;;;;;5048042;28;20087;-91
2023/01/22 11:13:19;;;;;;;0.20;0.20;;;13.00;62.10;;;;;;4993834;28;20022;-86
2023/01/22 11:15:52;;;;;;;;;;;12.70;62.40;;;;;;5012261;28;20002;-91
2023/01/22 11:18:47;;;;;;;0.30;0.30;;;12.60;62.60;;;;;;5007920;28;19905;-85
2023/01/22 11:21:22;;;;;;;0.20;0.20;;;12.80;62.50;;;;;;4662429;28;9999724;-96
2023/01/22 11:24:00;;;;;;;0.30;0.30;;;12.40;62.80;;;;;;4991696;28;20319;-93
2023/01/22 11:26:35;;;;;;;0.30;0.30;;;11.60;63.90;;;;;;4997584;28;20050;-88
2023/01/22 11:29:28;;;;;;;0.20;0.20;;;11.20;66.00;;;;;;5012903;28;20033;-88
2023/01/22 11:32:21;;;;;;;0.30;0.30;;;11.30;66.20;;;;;;5010189;28;20030;-87
2023/01/22 11:34:56;;;;;;;0.28;0.28;;;12.10;64.40;;;;;;5007585;28;20058;-96
2023/01/22 11:37:25;;;;;;;0.20;0.20;;;12.60;63.30;;;;;;4640112;28;9999912;-86
2023/01/22 11:40:32;;;;;;;0.20;0.20;;;12.70;62.60;;;;;;5001616;28;20034;-93
2023/01/22 11:43:17;;;;;;;0.20;0.20;;;12.60;62.80;;;;;;4966748;28;20093;-88
2023/01/22 11:46:14;;;;;;;0.30;0.30;;;12.90;62.30;;;;;;4993034;28;20041;-85
2023/01/22 11:48:57;;;;;;;0.15;0.15;;;13.40;61.70;;;;;;4995187;28;20075;-85
2023/01/22 11:51:26;;;;;;;0.30;0.30;;;13.70;60.80;;;;;;4994172;28;20030;-95
2023/01/22 11:53:57;;;;;;;0.38;0.38;;;13.60;60.60;;;;;;4986587;28;20074;-88
2023/01/22 11:57:18;;;;;;;0.20;0.20;;;13.60;61.20;;;;;;4998577;28;20054;-91
2023/01/22 11:59:55;;;;;;;0.20;0.20;;;14.00;60.40;;;;;;4634905;28;10000359;-92
2023/01/22 12:02:32;;;;;;;0.30;0.30;;;14.30;59.40;;;;;;4992346;28;20276;-89
2023/01/22 12:05:07;;;;;;;0.30;0.30;;;14.30;59.20;;;;;;4993565;28;20137;-88
2023/01/22 12:08:21;;;;;;;0.20;0.20;;;14.10;59.60;;;;;;5003038;28;20057;-86
2023/01/22 12:11:05;;;;;;;0.25;0.25;;;14.20;60.00;;;;;;5001610;28;20125;-88
2023/01/22 12:13:55;;;;;;;0.20;0.20;;;14.20;59.60;;;;;;4997546;28;20078;-88
2023/01/22 12:16:29;;;;;;;0.30;0.30;;;14.00;59.80;;;;;;5003843;28;20056;-88
2023/01/22 12:19:11;;;;;;;0.20;0.20;;;14.00;59.80;;;;;;5017872;28;20113;-86
2023/01/22 12:21:58;;;;;;;0.25;0.25;;;14.00;59.90;;;;;;5021945;28;20073;-84
2023/01/22 12:24:49;;;;;;;0.30;0.30;;;13.90;60.10;;;;;;5008895;28;20469;-89
2023/01/22 12:27:28;;;;;;;0.30;0.30;;;13.10;61.20;;;;;;5002489;28;20054;-89
2023/01/22 12:29:56;;;;;;;0.22;0.22;;;12.90;61.80;;;;;;4999547;28;20049;-86
2023/01/22 12:32:25;;;;;;;0.20;0.20;;;13.20;60.90;;;;;;5015445;28;20030;-86
2023/01/22 12:35:07;;;;;;;0.20;0.20;;;12.90;62.40;;;;;;5034308;28;20036;-87
2023/01/22 12:37:51;;;;;;;0.32;0.32;;;13.10;62.20;;;;;;5062528;28;20025;-87
2023/01/22 12:40:35;;;;;;;0.20;0.20;;;13.20;61.80;;;;;;5056999;28;20021;-88
2023/01/22 12:43:05;;;;;;;0.30;0.30;;;13.60;61.20;;;;;;5055997;28;20510;-85
2023/01/22 12:46:01;;;;;;;0.20;0.20;;;13.90;60.70;;;;;;5056039;28;20147;-87
2023/01/22 12:48:42;;;;;;;0.30;0.30;;;14.20;59.90;;;;;;5065926;28;20452;-96
2023/01/22 12:51:36;;;;;;;0.20;0.20;;;14.10;60.20;;;;;;5057664;28;20430;-88
2023/01/22 12:54:35;;;;;;;0.30;0.30;;;14.10;59.60;;;;;;5056111;28;20491;-87
2023/01/22 12:57:16;;;;;;;0.30;0.30;;;14.10;59.60;;;;;;5057152;28;20084;-87
2023/01/22 12:59:50;;;;;;;0.20;0.20;;;13.90;59.80;;;;;;5061472;28;20025;-86
2023/01/22 13:02:25;;;;;;;0.20;0.20;;;14.00;60.00;;;;;;5059690;28;20455;-91
2023/01/22 13:04:52;;;;;;;0.20;0.20;;;14.20;60.00;;;;;;5059593;28;20040;-89
2023/01/22 13:07:28;;;;;;;0.28;0.28;;;14.40;59.30;;;;;;4705499;28;9999890;-89
2023/01/22 13:10:03;;;;;;;0.20;0.20;;;14.50;59.30;;;;;;5037533;28;20468;-87
2023/01/22 13:12:46;;;;;;;0.20;0.20;;;14.60;58.50;;;;;;5035050;28;20071;-88
2023/01/22 13:15:26;;;;;;;0.20;0.20;;;14.60;58.70;;;;;;5035121;28;20033;-88